Address 0x6b072de7340da37fece3c2eb5906edd8d457f63d

 

Overview

Balance:
0.100169152300677124 BNB

BNB Value:
$4.57 (@ $45.66/BNB)

Token:
Txn Hash
Block
From
To
Value [Txn Fee]
0xc3b8ee34996a9bc2e7364e02287113d68cba7396a998b3447f716dd6e592eb9541065162021-01-18 19:46:5312 hrs 4 mins ago0x6b072de7340da37fece3c2eb5906edd8d457f63dOUT0x16c2905e99215c3cf67c47b5b21ba4b6b22de9310.5 BNB0.00042
0x89691cdebee1d75cf6907b578e1c43d677eacc51daa75ecfada02fca5b1661dc41064622021-01-18 19:44:1112 hrs 7 mins ago0x6b072de7340da37fece3c2eb5906edd8d457f63dOUT PancakeSwap: Router0 BNB0.0022925
0xd58ac647233d5df9ddfa7602b040dcf727f1da045306ca0da9df265e50727e4641064392021-01-18 19:43:0212 hrs 8 mins ago0x6b072de7340da37fece3c2eb5906edd8d457f63dOUT PancakeSwap: Router0 BNB0.00229308
0x8c9ca5881335f50d5c78696f1d5dfe0763a0d4c05f792a31c4a71c895a036c7a41064232021-01-18 19:42:1412 hrs 9 mins ago0x6b072de7340da37fece3c2eb5906edd8d457f63dOUT Beefy.Finance: BIFI Token0 BNB0.00089018
0xc132280739bbcfa5cea579f56277a98186a26c24e7ad66161022929cfaac54a541063872021-01-18 19:40:2612 hrs 11 mins ago0x6b072de7340da37fece3c2eb5906edd8d457f63dOUT WINk: blink Token0 BNB0.0008892
0xcca5f35728e70b2fc63ce024f9775c946208d34cef58be7714dc111a76f92bca41041592021-01-18 17:49:0214 hrs 2 mins ago0x6b072de7340da37fece3c2eb5906edd8d457f63dOUT 0x4b0f1812e5df2a09796481ff14017e60055080030 BNB0.00089158
0xcbc5ea1fce3ab8435bf692f236ad2a62863235c15289250c953cbcb6990122b241041182021-01-18 17:46:5914 hrs 4 mins ago0x6b072de7340da37fece3c2eb5906edd8d457f63dOUT PancakeSwap: Router0 BNB0.00228596
0x3b9a4fcf843df1fbd0727382b321d2958577ca02e66f09123b5cdcee1db11c7c41040782021-01-18 17:44:5914 hrs 6 mins ago0x6b072de7340da37fece3c2eb5906edd8d457f63dOUT PancakeSwap: CAKE Token0 BNB0.0008886
0xdd4e241d35249c6463968c6257a383e61a043a3e16202bac8c9230148155c3f941038842021-01-18 17:35:1714 hrs 16 mins ago0x6b072de7340da37fece3c2eb5906edd8d457f63dOUT0x16c2905e99215c3cf67c47b5b21ba4b6b22de9310.3 BNB0.00042
0xd9f89047e3eea3a0e61ac0481f172b4f1f6a92fbea8fd8655c41f28d12d3a76141031952021-01-18 17:00:5014 hrs 51 mins ago0x6b072de7340da37fece3c2eb5906edd8d457f63dOUT 0xb0bdbb9e507dbf55f4ac1ef6ada3e216202e06fd0 BNB0.00373642
0x5f0003d1d288b5c4c178dcce464c59f96c493b1996434b34fa2818388b11187540982432021-01-18 12:53:1418 hrs 58 mins ago0x6b072de7340da37fece3c2eb5906edd8d457f63dOUT0x7dc8a4b8b3627bac39eff710f1ac351a4b3af5d50.1 BNB0.00042
0xa3a04a9d25a5a3bb39f42cfe7888aeb111724463cb5bb111626b05b2d8fe4a8240980392021-01-18 12:43:0219 hrs 8 mins ago0x6b072de7340da37fece3c2eb5906edd8d457f63dOUT Bscex: BSCX Token0 BNB0.00078748
0xe52fb85dc915f0917e43da1da680aaad663d5e291e9114326cb98b3ebd88f99340979432021-01-18 12:38:1419 hrs 13 mins ago0x6b072de7340da37fece3c2eb5906edd8d457f63dOUT Binance: BUSD Stablecoin0 BNB0.00072278
0xccee3d36f9209eab3cbb8ed97b9326461607bb14c4b81ff4fea701123a4a5a8e40979082021-01-18 12:36:2919 hrs 15 mins ago0x6b072de7340da37fece3c2eb5906edd8d457f63dOUT PancakeSwap: Router1.49595522 BNB0.00221884
0xe17a8de5611be4cd6d4ee319477d337eb192601cdf217bc3b61947873405242340977442021-01-18 12:28:1719 hrs 23 mins ago0x6b072de7340da37fece3c2eb5906edd8d457f63dOUT PancakeSwap: Router0 BNB0.00303236
0xc9fe270a591695e42b6009d4ab7968d88af566b48eafd50e06dea5825b85ef7240976542021-01-18 12:23:4719 hrs 28 mins ago0x6b072de7340da37fece3c2eb5906edd8d457f63dOUT 0x1070b9a998c4457c5f393e389f275012e91b31d20 BNB0.00412602
0x20d88b125ec88bff613fdf2205c5d2975a001a089a1b3ab3e14ca266ca45f37140949362021-01-18 10:07:5321 hrs 43 mins ago0x6b072de7340da37fece3c2eb5906edd8d457f63dOUT PancakeSwap: Router0.2 BNB0.00228532
0x1617b8ed2d7af19637c6c3896ef5f8b6ac4c7e11c29d3ec4d7b86413239e1f7f40942812021-01-18 9:35:0822 hrs 16 mins ago0x6b072de7340da37fece3c2eb5906edd8d457f63dOUT0x16c2905e99215c3cf67c47b5b21ba4b6b22de9311 BNB0.00042
0xa349c399aecd23fdaa81cfb53d60e2376ec28683eedac38a139523538f79380640941122021-01-18 9:26:4122 hrs 25 mins agoBinance: Hot Wallet IN 0x6b072de7340da37fece3c2eb5906edd8d457f63d3.098 BNB0.00042
0x987abdfb797bba2ee745bc406d5c9a21bd1a5c05bc3e0230681c12d6dea0e07d40922242021-01-18 7:52:1723 hrs 59 mins ago0x6b072de7340da37fece3c2eb5906edd8d457f63dOUT PancakeSwap: Router0.204963680326421 BNB0.00352934
0xe50bc2b742b8cf753904af26d42279ecb4198382b0cb7acddc396c1c5feb905c40905022021-01-18 6:26:111 day 1 hr ago0x6b072de7340da37fece3c2eb5906edd8d457f63dOUT0xb4cd4d08055eb197490de6eca4a58de80de6073e0.8 BNB0.00042
0xe7fbf3eac40e282ba8049492b78bd5cf8b1cae109e1e007b3d6a724c852275ca40789122021-01-17 20:46:411 day 11 hrs ago0x6b072de7340da37fece3c2eb5906edd8d457f63dOUT0xb4cd4d08055eb197490de6eca4a58de80de6073e0.4 BNB0.00042
0x7df2f94a0086616b68fe4301b8485bec1462ecba150954828450015381bcd4e140787672021-01-17 20:39:261 day 11 hrs ago0x6b072de7340da37fece3c2eb5906edd8d457f63dOUT PancakeSwap: Router0.5 BNB0.00228532
0xdd633e46b20787eed42487761eb35c2a7966def18f5e2d4a29b1846b22f8395640752802021-01-17 17:45:051 day 14 hrs ago0x6b072de7340da37fece3c2eb5906edd8d457f63dOUT PancakeSwap: Router0 BNB0.00228652
0x87be171305b0e81b8d5445ffae5f883776756896ce3cfca7ea9a28e8a5bbc14e40511302021-01-16 21:37:352 days 10 hrs ago0x6b072de7340da37fece3c2eb5906edd8d457f63dOUT0xb4cd4d08055eb197490de6eca4a58de80de6073e0.7 BNB0.00042
[ Download CSV Export 
Latest 11 internal transactions
Parent Txn Hash Block From To Value
0x89691cdebee1d75cf6907b578e1c43d677eacc51daa75ecfada02fca5b1661dc41064622021-01-18 19:44:1112 hrs 7 mins ago PancakeSwap: Router0x6b072de7340da37fece3c2eb5906edd8d457f63d0.175218340774371083 BNB
0xd58ac647233d5df9ddfa7602b040dcf727f1da045306ca0da9df265e50727e4641064392021-01-18 19:43:0212 hrs 8 mins ago PancakeSwap: Router0x6b072de7340da37fece3c2eb5906edd8d457f63d0.322028336528532398 BNB
0xcbc5ea1fce3ab8435bf692f236ad2a62863235c15289250c953cbcb6990122b241041182021-01-18 17:46:5914 hrs 4 mins ago PancakeSwap: Router0x6b072de7340da37fece3c2eb5906edd8d457f63d0.023427354997773643 BNB
0xdd633e46b20787eed42487761eb35c2a7966def18f5e2d4a29b1846b22f8395640752802021-01-17 17:45:051 day 14 hrs ago PancakeSwap: Router0x6b072de7340da37fece3c2eb5906edd8d457f63d1.751048581727848511 BNB
0x8fdb4c46a3019d2aa2efcab3a35167b83d9d153ab29689e5aa6127e9da75cc9c40398402021-01-16 12:13:042 days 19 hrs ago PancakeSwap: Router0x6b072de7340da37fece3c2eb5906edd8d457f63d2.145549989219706927 BNB
0xcb7d7510661e8958db6bfe7bf249c341b0aefac4c3b2ad97f50415c19444a82f40367722021-01-16 9:39:402 days 22 hrs ago BSC: Token Hub0x6b072de7340da37fece3c2eb5906edd8d457f63d0.01863069 BNB
0x2ec209321535b072aefc05edf9e12d4ab94f12d652ff64ea7e90cc0b7399c17139605852021-01-13 18:10:165 days 13 hrs ago BSC: Token Hub0x6b072de7340da37fece3c2eb5906edd8d457f63d1.38 BNB
0x9d50985d0d1c31088287f40cabc407ab448f5453579729cb6cb7ef230faf137a39578442021-01-13 15:53:135 days 15 hrs ago PancakeSwap: Router0x6b072de7340da37fece3c2eb5906edd8d457f63d1.271762398340418582 BNB
0x6d3605cb3f536d18ec4d6fa9c2028903d59b85d05b3e851d6cb2f0a001f277bb39577582021-01-13 15:48:555 days 16 hrs ago PancakeSwap: Router0x6b072de7340da37fece3c2eb5906edd8d457f63d0.129013385563034132 BNB
0xd3fe9b43a9f08db34f85f7129cfdfb316c7190a6f4103debbb87cda9631fc2e539577172021-01-13 15:46:525 days 16 hrs ago PancakeSwap: Router0x6b072de7340da37fece3c2eb5906edd8d457f63d0.128963516923539984 BNB
0x086af1e83ea8fb2d617c4a4fd15af339d9d5c88dfd53f502c557d5109b46510039477462021-01-13 7:28:196 days 23 mins ago PancakeSwap: Router0x6b072de7340da37fece3c2eb5906edd8d457f63d0.016618244491490361 BNB
[ Download CSV Export 
Loading

Contract Name:
0 BNB

Compiler Version
0

Optimization Enabled:
0 BNB

Other Settings:
-NA-
Block Transaction Gas Used Reward
Age Block Fee Address BC Fee Address Voting Power Jailed Incoming
Block Uncle Number Difficulty Gas Used Reward
Loading
Loading
Make sure to use the "Vote Down" button for any spammy posts, and the "Vote Up" for interesting conversations.